Pagrindinis puslapis
METAR-TAF:

METAR-TAF

Oro uostai :

Jerevanas, Armėnija

platuma: 40-08-50N, ilguma: 044-23-45E, Aukštis: 865 m

Dabartinis oras

Ataskaita buvo paskelbta 26 minutes, ne 07:00 UTC
Vėjas 4 kt iš Pietų/Pietryčių, svyruoja nuo Rytų/Pietryčių ir Pietų
Temperatūra 25°C
Drėgmė 44%
Slėgis 1016 hPa
Matomumas 10 km arba daugiau

METAR: UDYZ 180700Z 15004KT 110V180 9999 NSC 25/12 Q1016 R09/010070 NOSIG

Laikas: 11:26 (07:26 UTC)

Prognozė

Ataskaita buvo paskelbta 2 valandos ir 23 minutes, ne 05:03 UTC
Prognozė galioja nuo 18 metu 06 UTC su 19 metu 06 UTC
Vėjas 6 kt iš Vakarų/Pietvakarių
Matomumas 10 km arba daugiau
Mažai debesys ne aukštis 4000 ft
Laikinai
nuo 18 metu 12 UTC su 18 metu 21 UTC
Vėjas 16 kt nuo kintamojo kryptimis su gūsio iki 26 kt
Mažai debesys ne aukštis 4000 ft, Liūtiniai kamuoliniai debesys.

TAF: UDYZ 180503Z 1806/1906 24006KT 9999 FEW040 TEMPO 1812/1821 VRB16G26KT FEW040CB

Orai ataskaitas ir orų prognozės (METAR, TAF).

turimą stotys yra geltonos ir raudonos taškus žemėlapyje.

Perkelti pele per norėdami pamatyti stoties vardą.

Tada spustelėkite, norėdami matyti oro stebėjimo ir prognozės.

Norėdami pakeisti žemėlapį: spustelėkite ant žalios mygtukų su juodo kryžiaus žemyn,; žalią mygtuką su brūkšneliu, jei norite nutolinti; arba žalių rodyklių gretimoms žemėlapius.


METAR-TAF: